sensor_id;sensor_type;location;lat;lon;timestamp;P1;durP1;ratioP1;P2;durP2;ratioP2
20038;SDS011;21737;42.868;25.320;2023-08-06T00:00:39;5.77;;;3.23;;
20038;SDS011;21737;42.868;25.320;2023-08-06T00:03:43;4.27;;;3.23;;
20038;SDS011;21737;42.868;25.320;2023-08-06T00:06:45;3.77;;;2.70;;
20038;SDS011;21737;42.868;25.320;2023-08-06T00:09:49;7.13;;;3.30;;
20038;SDS011;21737;42.868;25.320;2023-08-06T00:12:52;6.33;;;2.90;;
20038;SDS011;21737;42.868;25.320;2023-08-06T00:15:54;6.63;;;3.20;;
20038;SDS011;21737;42.868;25.320;2023-08-06T00:18:57;4.63;;;2.73;;
20038;SDS011;21737;42.868;25.320;2023-08-06T00:21:59;3.07;;;2.77;;
20038;SDS011;21737;42.868;25.320;2023-08-06T00:25:05;6.33;;;2.47;;
20038;SDS011;21737;42.868;25.320;2023-08-06T00:28:09;5.87;;;2.50;;
20038;SDS011;21737;42.868;25.320;2023-08-06T00:31:13;3.20;;;2.60;;
20038;SDS011;21737;42.868;25.320;2023-08-06T00:34:16;3.47;;;2.70;;
20038;SDS011;21737;42.868;25.320;2023-08-06T00:37:19;3.47;;;2.67;;
20038;SDS011;21737;42.868;25.320;2023-08-06T00:40:21;3.70;;;2.80;;
20038;SDS011;21737;42.868;25.320;2023-08-06T00:43:38;4.10;;;2.80;;
20038;SDS011;21737;42.868;25.320;2023-08-06T00:46:41;3.83;;;2.77;;
20038;SDS011;21737;42.868;25.320;2023-08-06T00:52:52;4.07;;;3.20;;
20038;SDS011;21737;42.868;25.320;2023-08-06T00:55:54;4.53;;;2.90;;
20038;SDS011;21737;42.868;25.320;2023-08-06T00:58:57;3.43;;;2.60;;
20038;SDS011;21737;42.868;25.320;2023-08-06T01:02:00;4.83;;;2.80;;
20038;SDS011;21737;42.868;25.320;2023-08-06T01:05:03;7.57;;;2.70;;
20038;SDS011;21737;42.868;25.320;2023-08-06T01:14:45;2.80;;;2.40;;
20038;SDS011;21737;42.868;25.320;2023-08-06T01:17:50;4.00;;;2.87;;
20038;SDS011;21737;42.868;25.320;2023-08-06T01:20:53;5.30;;;2.60;;
20038;SDS011;21737;42.868;25.320;2023-08-06T01:23:56;5.03;;;2.53;;
20038;SDS011;21737;42.868;25.320;2023-08-06T01:30:12;2.87;;;2.33;;
20038;SDS011;21737;42.868;25.320;2023-08-06T01:33:16;2.67;;;2.47;;
20038;SDS011;21737;42.868;25.320;2023-08-06T01:36:21;5.33;;;2.70;;
20038;SDS011;21737;42.868;25.320;2023-08-06T01:39:26;3.87;;;2.73;;
20038;SDS011;21737;42.868;25.320;2023-08-06T01:42:32;3.40;;;2.77;;
20038;SDS011;21737;42.868;25.320;2023-08-06T01:45:34;7.07;;;3.10;;
20038;SDS011;21737;42.868;25.320;2023-08-06T01:48:37;6.73;;;2.73;;
20038;SDS011;21737;42.868;25.320;2023-08-06T01:51:40;3.10;;;2.60;;
20038;SDS011;21737;42.868;25.320;2023-08-06T01:54:43;3.13;;;2.60;;
20038;SDS011;21737;42.868;25.320;2023-08-06T01:57:55;4.30;;;2.73;;
20038;SDS011;21737;42.868;25.320;2023-08-06T02:00:58;2.40;;;2.20;;
20038;SDS011;21737;42.868;25.320;2023-08-06T02:04:00;6.27;;;2.53;;
20038;SDS011;21737;42.868;25.320;2023-08-06T02:07:04;6.60;;;2.30;;
20038;SDS011;21737;42.868;25.320;2023-08-06T02:10:07;3.00;;;2.00;;
20038;SDS011;21737;42.868;25.320;2023-08-06T02:13:10;2.40;;;2.20;;
20038;SDS011;21737;42.868;25.320;2023-08-06T02:16:13;4.33;;;2.27;;
20038;SDS011;21737;42.868;25.320;2023-08-06T02:19:17;3.60;;;2.40;;
20038;SDS011;21737;42.868;25.320;2023-08-06T02:22:21;2.93;;;2.47;;
20038;SDS011;21737;42.868;25.320;2023-08-06T02:25:23;2.80;;;2.20;;
20038;SDS011;21737;42.868;25.320;2023-08-06T02:28:28;6.93;;;2.10;;
20038;SDS011;21737;42.868;25.320;2023-08-06T02:31:30;3.10;;;2.30;;
20038;SDS011;21737;42.868;25.320;2023-08-06T02:34:34;3.23;;;2.47;;
20038;SDS011;21737;42.868;25.320;2023-08-06T02:37:36;3.33;;;2.30;;
20038;SDS011;21737;42.868;25.320;2023-08-06T02:40:45;2.80;;;2.30;;
20038;SDS011;21737;42.868;25.320;2023-08-06T02:43:49;5.63;;;2.60;;
20038;SDS011;21737;42.868;25.320;2023-08-06T02:46:53;3.43;;;2.63;;
20038;SDS011;21737;42.868;25.320;2023-08-06T02:53:23;3.37;;;2.80;;
20038;SDS011;21737;42.868;25.320;2023-08-06T02:56:27;2.90;;;2.60;;
20038;SDS011;21737;42.868;25.320;2023-08-06T02:59:47;3.73;;;3.27;;
20038;SDS011;21737;42.868;25.320;2023-08-06T03:02:53;4.43;;;3.10;;
20038;SDS011;21737;42.868;25.320;2023-08-06T03:06:07;4.40;;;2.90;;
20038;SDS011;21737;42.868;25.320;2023-08-06T03:09:17;4.20;;;2.93;;
20038;SDS011;21737;42.868;25.320;2023-08-06T03:12:23;4.83;;;2.97;;
20038;SDS011;21737;42.868;25.320;2023-08-06T03:15:25;5.80;;;2.93;;
20038;SDS011;21737;42.868;25.320;2023-08-06T03:18:29;5.07;;;2.90;;
20038;SDS011;21737;42.868;25.320;2023-08-06T03:21:35;5.00;;;2.90;;
20038;SDS011;21737;42.868;25.320;2023-08-06T03:24:39;3.73;;;3.10;;
20038;SDS011;21737;42.868;25.320;2023-08-06T03:27:43;6.90;;;4.63;;
20038;SDS011;21737;42.868;25.320;2023-08-06T03:30:58;9.53;;;7.17;;
20038;SDS011;21737;42.868;25.320;2023-08-06T03:34:04;2.77;;;2.57;;
20038;SDS011;21737;42.868;25.320;2023-08-06T03:37:07;3.57;;;2.70;;
20038;SDS011;21737;42.868;25.320;2023-08-06T03:40:09;3.60;;;2.87;;
20038;SDS011;21737;42.868;25.320;2023-08-06T03:43:13;2.63;;;2.43;;
20038;SDS011;21737;42.868;25.320;2023-08-06T03:46:16;4.87;;;2.90;;
20038;SDS011;21737;42.868;25.320;2023-08-06T03:49:18;5.70;;;3.30;;
20038;SDS011;21737;42.868;25.320;2023-08-06T03:52:21;4.50;;;3.00;;
20038;SDS011;21737;42.868;25.320;2023-08-06T03:55:24;3.50;;;2.93;;
20038;SDS011;21737;42.868;25.320;2023-08-06T03:58:26;3.70;;;3.03;;
20038;SDS011;21737;42.868;25.320;2023-08-06T04:01:30;3.97;;;2.90;;
20038;SDS011;21737;42.868;25.320;2023-08-06T04:04:35;4.17;;;2.90;;
20038;SDS011;21737;42.868;25.320;2023-08-06T04:07:38;2.87;;;2.47;;
20038;SDS011;21737;42.868;25.320;2023-08-06T04:10:43;3.20;;;2.80;;
20038;SDS011;21737;42.868;25.320;2023-08-06T04:13:48;3.77;;;2.70;;
20038;SDS011;21737;42.868;25.320;2023-08-06T04:16:55;3.00;;;2.60;;
20038;SDS011;21737;42.868;25.320;2023-08-06T04:19:57;2.80;;;2.60;;
20038;SDS011;21737;42.868;25.320;2023-08-06T04:23:05;4.70;;;2.70;;
20038;SDS011;21737;42.868;25.320;2023-08-06T04:26:10;3.10;;;2.67;;
20038;SDS011;21737;42.868;25.320;2023-08-06T04:29:14;4.13;;;2.80;;
20038;SDS011;21737;42.868;25.320;2023-08-06T04:32:17;4.70;;;3.30;;
20038;SDS011;21737;42.868;25.320;2023-08-06T04:35:27;3.63;;;3.00;;
20038;SDS011;21737;42.868;25.320;2023-08-06T04:38:31;3.23;;;2.93;;
20038;SDS011;21737;42.868;25.320;2023-08-06T04:41:34;6.87;;;3.30;;
20038;SDS011;21737;42.868;25.320;2023-08-06T04:44:37;4.50;;;3.33;;
20038;SDS011;21737;42.868;25.320;2023-08-06T04:47:41;5.53;;;3.17;;
20038;SDS011;21737;42.868;25.320;2023-08-06T04:50:44;3.23;;;2.90;;
20038;SDS011;21737;42.868;25.320;2023-08-06T04:53:47;4.47;;;3.30;;
20038;SDS011;21737;42.868;25.320;2023-08-06T04:56:49;4.27;;;3.03;;
20038;SDS011;21737;42.868;25.320;2023-08-06T04:59:52;3.87;;;3.10;;
20038;SDS011;21737;42.868;25.320;2023-08-06T05:02:55;4.17;;;2.70;;
20038;SDS011;21737;42.868;25.320;2023-08-06T05:05:58;4.47;;;3.00;;
20038;SDS011;21737;42.868;25.320;2023-08-06T05:09:01;7.97;;;3.10;;
20038;SDS011;21737;42.868;25.320;2023-08-06T05:12:03;4.43;;;2.73;;
20038;SDS011;21737;42.868;25.320;2023-08-06T05:15:08;4.77;;;2.97;;
20038;SDS011;21737;42.868;25.320;2023-08-06T05:18:11;4.10;;;2.67;;
20038;SDS011;21737;42.868;25.320;2023-08-06T05:21:14;4.17;;;2.60;;
20038;SDS011;21737;42.868;25.320;2023-08-06T05:24:22;2.63;;;2.40;;
20038;SDS011;21737;42.868;25.320;2023-08-06T05:30:32;3.00;;;2.73;;
20038;SDS011;21737;42.868;25.320;2023-08-06T05:33:35;7.10;;;2.50;;
20038;SDS011;21737;42.868;25.320;2023-08-06T05:36:38;4.20;;;2.67;;
20038;SDS011;21737;42.868;25.320;2023-08-06T05:39:41;5.60;;;2.23;;
20038;SDS011;21737;42.868;25.320;2023-08-06T05:42:44;2.50;;;2.10;;
20038;SDS011;21737;42.868;25.320;2023-08-06T05:45:48;3.40;;;2.20;;
20038;SDS011;21737;42.868;25.320;2023-08-06T05:48:52;3.40;;;1.83;;
20038;SDS011;21737;42.868;25.320;2023-08-06T05:51:56;2.80;;;2.23;;
20038;SDS011;21737;42.868;25.320;2023-08-06T05:54:59;3.90;;;2.20;;
20038;SDS011;21737;42.868;25.320;2023-08-06T05:58:01;2.13;;;1.93;;
20038;SDS011;21737;42.868;25.320;2023-08-06T06:01:03;4.37;;;2.50;;
20038;SDS011;21737;42.868;25.320;2023-08-06T06:04:07;3.23;;;2.13;;
20038;SDS011;21737;42.868;25.320;2023-08-06T06:07:10;4.60;;;2.07;;
20038;SDS011;21737;42.868;25.320;2023-08-06T06:10:13;2.67;;;1.93;;
20038;SDS011;21737;42.868;25.320;2023-08-06T06:13:20;2.55;;;1.80;;
20038;SDS011;21737;42.868;25.320;2023-08-06T06:16:35;2.45;;;1.83;;
20038;SDS011;21737;42.868;25.320;2023-08-06T06:19:40;3.58;;;1.80;;
20038;SDS011;21737;42.868;25.320;2023-08-06T06:22:43;2.33;;;1.70;;
20038;SDS011;21737;42.868;25.320;2023-08-06T06:25:49;2.83;;;1.77;;
20038;SDS011;21737;42.868;25.320;2023-08-06T06:28:55;2.53;;;1.88;;
20038;SDS011;21737;42.868;25.320;2023-08-06T06:31:59;3.15;;;2.08;;
20038;SDS011;21737;42.868;25.320;2023-08-06T06:35:02;1.98;;;1.50;;
20038;SDS011;21737;42.868;25.320;2023-08-06T06:38:06;2.50;;;1.70;;
20038;SDS011;21737;42.868;25.320;2023-08-06T06:41:09;2.65;;;1.52;;
20038;SDS011;21737;42.868;25.320;2023-08-06T06:44:13;5.25;;;1.55;;
20038;SDS011;21737;42.868;25.320;2023-08-06T06:47:16;3.35;;;1.90;;
20038;SDS011;21737;42.868;25.320;2023-08-06T06:50:20;7.95;;;2.20;;
20038;SDS011;21737;42.868;25.320;2023-08-06T06:53:22;3.45;;;2.20;;
20038;SDS011;21737;42.868;25.320;2023-08-06T06:56:29;2.35;;;2.10;;
20038;SDS011;21737;42.868;25.320;2023-08-06T06:59:33;3.00;;;2.20;;
20038;SDS011;21737;42.868;25.320;2023-08-06T07:02:36;2.58;;;1.88;;
20038;SDS011;21737;42.868;25.320;2023-08-06T07:05:39;2.33;;;2.13;;
20038;SDS011;21737;42.868;25.320;2023-08-06T07:08:42;2.53;;;2.20;;
20038;SDS011;21737;42.868;25.320;2023-08-06T07:11:45;2.83;;;2.30;;
20038;SDS011;21737;42.868;25.320;2023-08-06T07:14:48;3.50;;;2.47;;
20038;SDS011;21737;42.868;25.320;2023-08-06T07:17:51;2.17;;;1.98;;
20038;SDS011;21737;42.868;25.320;2023-08-06T07:20:54;2.30;;;2.10;;
20038;SDS011;21737;42.868;25.320;2023-08-06T07:23:57;6.22;;;2.80;;
20038;SDS011;21737;42.868;25.320;2023-08-06T07:27:05;16.30;;;4.03;;
20038;SDS011;21737;42.868;25.320;2023-08-06T07:30:08;9.33;;;3.57;;
20038;SDS011;21737;42.868;25.320;2023-08-06T07:33:10;5.57;;;2.97;;
20038;SDS011;21737;42.868;25.320;2023-08-06T07:36:13;5.17;;;3.30;;
20038;SDS011;21737;42.868;25.320;2023-08-06T07:39:16;4.63;;;2.77;;
20038;SDS011;21737;42.868;25.320;2023-08-06T07:42:19;4.37;;;2.93;;
20038;SDS011;21737;42.868;25.320;2023-08-06T07:45:23;5.77;;;3.60;;
20038;SDS011;21737;42.868;25.320;2023-08-06T07:48:26;6.33;;;3.30;;
20038;SDS011;21737;42.868;25.320;2023-08-06T07:51:30;6.10;;;3.80;;
20038;SDS011;21737;42.868;25.320;2023-08-06T07:54:32;9.23;;;3.40;;
20038;SDS011;21737;42.868;25.320;2023-08-06T07:57:36;4.33;;;3.23;;
20038;SDS011;21737;42.868;25.320;2023-08-06T08:00:40;5.90;;;3.47;;
20038;SDS011;21737;42.868;25.320;2023-08-06T08:03:44;6.03;;;3.70;;
20038;SDS011;21737;42.868;25.320;2023-08-06T08:06:48;4.77;;;3.10;;
20038;SDS011;21737;42.868;25.320;2023-08-06T08:09:52;4.37;;;3.20;;
20038;SDS011;21737;42.868;25.320;2023-08-06T08:12:54;7.23;;;4.30;;
20038;SDS011;21737;42.868;25.320;2023-08-06T08:15:57;7.30;;;4.27;;
20038;SDS011;21737;42.868;25.320;2023-08-06T08:19:01;5.23;;;3.77;;
20038;SDS011;21737;42.868;25.320;2023-08-06T08:22:05;3.70;;;2.90;;
20038;SDS011;21737;42.868;25.320;2023-08-06T08:25:08;5.50;;;3.40;;
20038;SDS011;21737;42.868;25.320;2023-08-06T08:28:11;9.20;;;3.13;;
20038;SDS011;21737;42.868;25.320;2023-08-06T08:31:14;5.30;;;3.33;;
20038;SDS011;21737;42.868;25.320;2023-08-06T08:34:19;5.83;;;3.70;;
20038;SDS011;21737;42.868;25.320;2023-08-06T08:37:22;5.67;;;3.60;;
20038;SDS011;21737;42.868;25.320;2023-08-06T08:40:30;4.57;;;3.10;;
20038;SDS011;21737;42.868;25.320;2023-08-06T08:43:36;5.90;;;3.70;;
20038;SDS011;21737;42.868;25.320;2023-08-06T08:46:40;5.30;;;3.20;;
20038;SDS011;21737;42.868;25.320;2023-08-06T08:49:43;4.23;;;2.70;;
20038;SDS011;21737;42.868;25.320;2023-08-06T08:52:47;3.67;;;2.97;;
20038;SDS011;21737;42.868;25.320;2023-08-06T08:55:52;3.67;;;2.50;;
20038;SDS011;21737;42.868;25.320;2023-08-06T08:58:55;4.47;;;2.78;;
20038;SDS011;21737;42.868;25.320;2023-08-06T09:01:58;3.30;;;2.83;;
20038;SDS011;21737;42.868;25.320;2023-08-06T09:05:03;3.03;;;2.72;;
20038;SDS011;21737;42.868;25.320;2023-08-06T09:08:07;4.85;;;3.63;;
20038;SDS011;21737;42.868;25.320;2023-08-06T09:11:17;3.60;;;2.63;;
20038;SDS011;21737;42.868;25.320;2023-08-06T09:14:25;6.47;;;3.17;;
20038;SDS011;21737;42.868;25.320;2023-08-06T09:17:28;3.72;;;3.30;;
20038;SDS011;21737;42.868;25.320;2023-08-06T09:20:31;5.30;;;3.70;;
20038;SDS011;21737;42.868;25.320;2023-08-06T09:23:37;7.18;;;4.00;;
20038;SDS011;21737;42.868;25.320;2023-08-06T09:26:40;8.85;;;4.60;;
20038;SDS011;21737;42.868;25.320;2023-08-06T09:29:44;7.43;;;5.30;;
20038;SDS011;21737;42.868;25.320;2023-08-06T09:32:55;7.17;;;5.27;;
20038;SDS011;21737;42.868;25.320;2023-08-06T09:36:06;7.53;;;5.33;;
20038;SDS011;21737;42.868;25.320;2023-08-06T09:39:14;9.17;;;5.53;;
20038;SDS011;21737;42.868;25.320;2023-08-06T09:42:17;10.43;;;6.23;;
20038;SDS011;21737;42.868;25.320;2023-08-06T09:45:20;7.30;;;6.20;;
20038;SDS011;21737;42.868;25.320;2023-08-06T09:48:25;8.03;;;6.43;;
20038;SDS011;21737;42.868;25.320;2023-08-06T09:51:28;9.40;;;6.13;;
20038;SDS011;21737;42.868;25.320;2023-08-06T09:54:57;9.93;;;7.10;;
20038;SDS011;21737;42.868;25.320;2023-08-06T09:58:52;10.10;;;6.73;;
20038;SDS011;21737;42.868;25.320;2023-08-06T10:02:21;7.10;;;6.20;;
20038;SDS011;21737;42.868;25.320;2023-08-06T10:05:27;10.50;;;7.00;;
20038;SDS011;21737;42.868;25.320;2023-08-06T10:08:30;7.00;;;6.30;;
20038;SDS011;21737;42.868;25.320;2023-08-06T10:11:32;7.50;;;6.63;;
20038;SDS011;21737;42.868;25.320;2023-08-06T10:14:37;8.33;;;6.13;;
20038;SDS011;21737;42.868;25.320;2023-08-06T10:17:41;8.00;;;6.40;;
20038;SDS011;21737;42.868;25.320;2023-08-06T10:20:53;8.40;;;6.30;;
20038;SDS011;21737;42.868;25.320;2023-08-06T10:23:56;10.20;;;7.17;;
20038;SDS011;21737;42.868;25.320;2023-08-06T10:26:59;9.87;;;6.50;;
20038;SDS011;21737;42.868;25.320;2023-08-06T10:33:24;8.20;;;5.13;;
20038;SDS011;21737;42.868;25.320;2023-08-06T10:36:27;5.77;;;4.43;;
20038;SDS011;21737;42.868;25.320;2023-08-06T10:39:29;5.73;;;4.20;;
20038;SDS011;21737;42.868;25.320;2023-08-06T10:42:33;6.50;;;3.90;;
20038;SDS011;21737;42.868;25.320;2023-08-06T10:45:36;5.43;;;3.37;;
20038;SDS011;21737;42.868;25.320;2023-08-06T10:48:41;4.47;;;3.30;;
20038;SDS011;21737;42.868;25.320;2023-08-06T10:51:44;4.10;;;3.07;;
20038;SDS011;21737;42.868;25.320;2023-08-06T10:54:49;3.17;;;2.50;;
20038;SDS011;21737;42.868;25.320;2023-08-06T10:57:51;6.73;;;3.10;;
20038;SDS011;21737;42.868;25.320;2023-08-06T11:00:55;4.60;;;2.83;;
20038;SDS011;21737;42.868;25.320;2023-08-06T11:04:00;5.23;;;2.30;;
20038;SDS011;21737;42.868;25.320;2023-08-06T11:07:06;4.20;;;2.60;;
20038;SDS011;21737;42.868;25.320;2023-08-06T11:10:11;3.20;;;2.90;;
20038;SDS011;21737;42.868;25.320;2023-08-06T11:13:16;6.87;;;3.07;;
20038;SDS011;21737;42.868;25.320;2023-08-06T11:16:21;5.17;;;3.30;;
20038;SDS011;21737;42.868;25.320;2023-08-06T11:19:26;3.53;;;3.23;;
20038;SDS011;21737;42.868;25.320;2023-08-06T11:22:28;3.53;;;3.20;;
20038;SDS011;21737;42.868;25.320;2023-08-06T11:25:44;5.90;;;3.10;;
20038;SDS011;21737;42.868;25.320;2023-08-06T11:28:49;4.77;;;3.33;;
20038;SDS011;21737;42.868;25.320;2023-08-06T11:31:52;5.53;;;3.60;;
20038;SDS011;21737;42.868;25.320;2023-08-06T11:34:56;3.60;;;3.30;;
20038;SDS011;21737;42.868;25.320;2023-08-06T11:37:59;4.23;;;3.40;;
20038;SDS011;21737;42.868;25.320;2023-08-06T11:41:02;4.60;;;3.37;;
20038;SDS011;21737;42.868;25.320;2023-08-06T11:44:05;4.97;;;3.60;;
20038;SDS011;21737;42.868;25.320;2023-08-06T11:47:11;3.20;;;2.90;;
20038;SDS011;21737;42.868;25.320;2023-08-06T11:50:21;2.80;;;2.50;;
20038;SDS011;21737;42.868;25.320;2023-08-06T11:53:27;3.63;;;2.50;;
20038;SDS011;21737;42.868;25.320;2023-08-06T11:56:30;2.60;;;2.40;;
20038;SDS011;21737;42.868;25.320;2023-08-06T11:59:33;3.83;;;3.07;;
20038;SDS011;21737;42.868;25.320;2023-08-06T12:02:39;4.27;;;2.77;;
20038;SDS011;21737;42.868;25.320;2023-08-06T12:05:44;6.80;;;2.87;;
20038;SDS011;21737;42.868;25.320;2023-08-06T12:08:49;5.13;;;3.17;;
20038;SDS011;21737;42.868;25.320;2023-08-06T12:11:56;3.90;;;3.30;;
20038;SDS011;21737;42.868;25.320;2023-08-06T12:14:59;5.47;;;3.57;;
20038;SDS011;21737;42.868;25.320;2023-08-06T12:18:01;3.87;;;3.10;;
20038;SDS011;21737;42.868;25.320;2023-08-06T12:21:04;3.50;;;3.20;;
20038;SDS011;21737;42.868;25.320;2023-08-06T12:24:07;7.47;;;3.77;;
20038;SDS011;21737;42.868;25.320;2023-08-06T12:27:10;3.50;;;3.20;;
20038;SDS011;21737;42.868;25.320;2023-08-06T12:30:15;8.87;;;3.40;;
20038;SDS011;21737;42.868;25.320;2023-08-06T12:33:18;5.33;;;3.50;;
20038;SDS011;21737;42.868;25.320;2023-08-06T12:36:21;4.10;;;3.30;;
20038;SDS011;21737;42.868;25.320;2023-08-06T12:39:25;5.27;;;3.07;;
20038;SDS011;21737;42.868;25.320;2023-08-06T12:42:32;3.87;;;3.40;;
20038;SDS011;21737;42.868;25.320;2023-08-06T12:45:35;5.10;;;3.30;;
20038;SDS011;21737;42.868;25.320;2023-08-06T12:48:38;4.67;;;3.27;;
20038;SDS011;21737;42.868;25.320;2023-08-06T12:51:41;3.53;;;3.23;;
20038;SDS011;21737;42.868;25.320;2023-08-06T12:54:45;4.20;;;3.57;;
20038;SDS011;21737;42.868;25.320;2023-08-06T12:57:48;3.27;;;2.97;;
20038;SDS011;21737;42.868;25.320;2023-08-06T13:00:59;6.17;;;3.50;;
20038;SDS011;21737;42.868;25.320;2023-08-06T13:04:02;5.63;;;3.83;;
20038;SDS011;21737;42.868;25.320;2023-08-06T13:07:20;3.47;;;3.17;;
20038;SDS011;21737;42.868;25.320;2023-08-06T13:10:23;5.00;;;3.27;;
20038;SDS011;21737;42.868;25.320;2023-08-06T13:13:27;3.77;;;3.10;;
20038;SDS011;21737;42.868;25.320;2023-08-06T13:16:30;5.67;;;3.53;;
20038;SDS011;21737;42.868;25.320;2023-08-06T13:19:34;3.70;;;3.10;;
20038;SDS011;21737;42.868;25.320;2023-08-06T13:22:39;5.47;;;3.10;;
20038;SDS011;21737;42.868;25.320;2023-08-06T13:25:42;5.27;;;3.50;;
20038;SDS011;21737;42.868;25.320;2023-08-06T13:28:48;3.53;;;2.80;;
20038;SDS011;21737;42.868;25.320;2023-08-06T13:31:56;3.10;;;2.87;;
20038;SDS011;21737;42.868;25.320;2023-08-06T13:35:00;5.37;;;3.13;;
20038;SDS011;21737;42.868;25.320;2023-08-06T13:38:03;6.90;;;3.40;;
20038;SDS011;21737;42.868;25.320;2023-08-06T13:41:08;3.83;;;3.00;;
20038;SDS011;21737;42.868;25.320;2023-08-06T13:44:13;3.50;;;3.20;;
20038;SDS011;21737;42.868;25.320;2023-08-06T13:47:17;6.80;;;3.30;;
20038;SDS011;21737;42.868;25.320;2023-08-06T13:50:21;3.97;;;3.30;;
20038;SDS011;21737;42.868;25.320;2023-08-06T13:53:25;3.40;;;3.10;;
20038;SDS011;21737;42.868;25.320;2023-08-06T13:56:32;3.17;;;2.87;;
20038;SDS011;21737;42.868;25.320;2023-08-06T13:59:36;3.00;;;2.80;;
20038;SDS011;21737;42.868;25.320;2023-08-06T14:02:39;4.43;;;2.90;;
20038;SDS011;21737;42.868;25.320;2023-08-06T14:05:41;4.50;;;2.83;;
20038;SDS011;21737;42.868;25.320;2023-08-06T14:08:44;3.10;;;2.90;;
20038;SDS011;21737;42.868;25.320;2023-08-06T14:11:46;3.73;;;3.07;;
20038;SDS011;21737;42.868;25.320;2023-08-06T14:14:49;3.47;;;3.00;;
20038;SDS011;21737;42.868;25.320;2023-08-06T14:17:52;4.13;;;2.90;;
20038;SDS011;21737;42.868;25.320;2023-08-06T14:20:54;6.37;;;3.50;;
20038;SDS011;21737;42.868;25.320;2023-08-06T14:23:57;3.20;;;2.90;;
20038;SDS011;21737;42.868;25.320;2023-08-06T14:26:59;5.55;;;3.30;;
20038;SDS011;21737;42.868;25.320;2023-08-06T14:30:02;3.40;;;3.10;;
20038;SDS011;21737;42.868;25.320;2023-08-06T14:33:07;3.53;;;2.90;;
20038;SDS011;21737;42.868;25.320;2023-08-06T14:36:28;5.10;;;2.90;;
20038;SDS011;21737;42.868;25.320;2023-08-06T14:39:30;6.60;;;3.38;;
20038;SDS011;21737;42.868;25.320;2023-08-06T14:42:33;4.37;;;3.27;;
20038;SDS011;21737;42.868;25.320;2023-08-06T14:45:39;3.80;;;3.43;;
20038;SDS011;21737;42.868;25.320;2023-08-06T14:48:41;3.88;;;2.72;;
20038;SDS011;21737;42.868;25.320;2023-08-06T14:51:47;3.73;;;3.00;;
20038;SDS011;21737;42.868;25.320;2023-08-06T14:54:50;3.43;;;2.83;;
20038;SDS011;21737;42.868;25.320;2023-08-06T14:57:55;5.75;;;3.13;;
20038;SDS011;21737;42.868;25.320;2023-08-06T15:00:58;3.03;;;2.72;;
20038;SDS011;21737;42.868;25.320;2023-08-06T15:04:01;3.20;;;2.90;;
20038;SDS011;21737;42.868;25.320;2023-08-06T15:07:04;5.40;;;3.27;;
20038;SDS011;21737;42.868;25.320;2023-08-06T15:10:08;4.97;;;2.67;;
20038;SDS011;21737;42.868;25.320;2023-08-06T15:13:14;2.87;;;2.63;;
20038;SDS011;21737;42.868;25.320;2023-08-06T15:16:20;3.53;;;2.90;;
20038;SDS011;21737;42.868;25.320;2023-08-06T15:19:24;4.23;;;2.90;;
20038;SDS011;21737;42.868;25.320;2023-08-06T15:22:27;5.53;;;3.80;;
20038;SDS011;21737;42.868;25.320;2023-08-06T15:25:31;6.45;;;3.72;;
20038;SDS011;21737;42.868;25.320;2023-08-06T15:28:35;2.80;;;2.60;;
20038;SDS011;21737;42.868;25.320;2023-08-06T15:31:38;5.55;;;2.97;;
20038;SDS011;21737;42.868;25.320;2023-08-06T15:34:41;7.72;;;5.05;;
20038;SDS011;21737;42.868;25.320;2023-08-06T15:37:45;5.50;;;2.88;;
20038;SDS011;21737;42.868;25.320;2023-08-06T15:40:49;3.20;;;2.60;;
20038;SDS011;21737;42.868;25.320;2023-08-06T15:43:51;3.03;;;2.38;;
20038;SDS011;21737;42.868;25.320;2023-08-06T15:46:55;2.63;;;2.42;;
20038;SDS011;21737;42.868;25.320;2023-08-06T15:49:59;4.43;;;3.45;;
20038;SDS011;21737;42.868;25.320;2023-08-06T15:53:03;3.07;;;2.63;;
20038;SDS011;21737;42.868;25.320;2023-08-06T15:56:07;3.13;;;2.70;;
20038;SDS011;21737;42.868;25.320;2023-08-06T15:59:31;2.60;;;2.40;;
20038;SDS011;21737;42.868;25.320;2023-08-06T16:02:34;3.30;;;2.70;;
20038;SDS011;21737;42.868;25.320;2023-08-06T16:05:38;6.23;;;3.07;;
20038;SDS011;21737;42.868;25.320;2023-08-06T16:08:41;2.90;;;2.70;;
20038;SDS011;21737;42.868;25.320;2023-08-06T16:11:45;2.90;;;2.67;;
20038;SDS011;21737;42.868;25.320;2023-08-06T16:14:49;3.17;;;2.60;;
20038;SDS011;21737;42.868;25.320;2023-08-06T16:17:54;2.85;;;2.58;;
20038;SDS011;21737;42.868;25.320;2023-08-06T16:21:22;2.70;;;2.50;;
20038;SDS011;21737;42.868;25.320;2023-08-06T16:24:24;3.30;;;2.50;;
20038;SDS011;21737;42.868;25.320;2023-08-06T16:27:27;2.50;;;2.13;;
20038;SDS011;21737;42.868;25.320;2023-08-06T16:30:30;4.88;;;2.75;;
20038;SDS011;21737;42.868;25.320;2023-08-06T16:33:34;2.72;;;2.47;;
20038;SDS011;21737;42.868;25.320;2023-08-06T16:36:37;6.33;;;5.37;;
20038;SDS011;21737;42.868;25.320;2023-08-06T16:39:39;4.70;;;3.30;;
20038;SDS011;21737;42.868;25.320;2023-08-06T16:42:43;3.83;;;3.30;;
20038;SDS011;21737;42.868;25.320;2023-08-06T16:45:46;7.30;;;3.03;;
20038;SDS011;21737;42.868;25.320;2023-08-06T16:48:50;8.50;;;3.40;;
20038;SDS011;21737;42.868;25.320;2023-08-06T16:51:53;5.50;;;3.40;;
20038;SDS011;21737;42.868;25.320;2023-08-06T16:54:56;4.50;;;3.27;;
20038;SDS011;21737;42.868;25.320;2023-08-06T16:57:59;7.90;;;4.37;;
20038;SDS011;21737;42.868;25.320;2023-08-06T17:01:01;6.90;;;4.00;;
20038;SDS011;21737;42.868;25.320;2023-08-06T17:04:07;5.67;;;3.60;;
20038;SDS011;21737;42.868;25.320;2023-08-06T17:07:11;6.33;;;4.33;;
20038;SDS011;21737;42.868;25.320;2023-08-06T17:10:13;10.57;;;4.63;;
20038;SDS011;21737;42.868;25.320;2023-08-06T17:13:17;7.63;;;4.03;;
20038;SDS011;21737;42.868;25.320;2023-08-06T17:16:23;8.50;;;4.77;;
20038;SDS011;21737;42.868;25.320;2023-08-06T17:19:26;6.67;;;4.10;;
20038;SDS011;21737;42.868;25.320;2023-08-06T17:22:29;7.27;;;4.27;;
20038;SDS011;21737;42.868;25.320;2023-08-06T17:25:31;6.37;;;4.30;;
20038;SDS011;21737;42.868;25.320;2023-08-06T17:29:01;8.77;;;4.20;;
20038;SDS011;21737;42.868;25.320;2023-08-06T17:32:04;7.33;;;4.57;;
20038;SDS011;21737;42.868;25.320;2023-08-06T17:35:06;7.33;;;4.83;;
20038;SDS011;21737;42.868;25.320;2023-08-06T17:38:10;8.60;;;5.00;;
20038;SDS011;21737;42.868;25.320;2023-08-06T17:41:13;12.53;;;6.40;;
20038;SDS011;21737;42.868;25.320;2023-08-06T17:44:16;10.40;;;6.33;;
20038;SDS011;21737;42.868;25.320;2023-08-06T17:47:21;13.37;;;6.00;;
20038;SDS011;21737;42.868;25.320;2023-08-06T17:50:38;10.43;;;5.10;;
20038;SDS011;21737;42.868;25.320;2023-08-06T17:53:42;9.93;;;5.07;;
20038;SDS011;21737;42.868;25.320;2023-08-06T17:56:45;6.67;;;5.03;;
20038;SDS011;21737;42.868;25.320;2023-08-06T17:59:47;6.23;;;4.90;;
20038;SDS011;21737;42.868;25.320;2023-08-06T18:02:51;6.97;;;4.63;;
20038;SDS011;21737;42.868;25.320;2023-08-06T18:05:56;6.67;;;4.80;;
20038;SDS011;21737;42.868;25.320;2023-08-06T18:08:59;11.13;;;5.53;;
20038;SDS011;21737;42.868;25.320;2023-08-06T18:12:01;7.30;;;4.80;;
20038;SDS011;21737;42.868;25.320;2023-08-06T18:15:05;7.07;;;5.63;;
20038;SDS011;21737;42.868;25.320;2023-08-06T18:18:07;8.57;;;5.00;;
20038;SDS011;21737;42.868;25.320;2023-08-06T18:21:12;9.83;;;4.70;;
20038;SDS011;21737;42.868;25.320;2023-08-06T18:24:20;9.53;;;5.50;;
20038;SDS011;21737;42.868;25.320;2023-08-06T18:27:23;10.47;;;5.70;;
20038;SDS011;21737;42.868;25.320;2023-08-06T18:30:27;7.70;;;5.53;;
20038;SDS011;21737;42.868;25.320;2023-08-06T18:33:30;9.07;;;5.47;;
20038;SDS011;21737;42.868;25.320;2023-08-06T18:36:34;7.47;;;4.77;;